Date,TemperatureHighF,TemperatureAvgF,TemperatureLowF,DewpointHighF,DewpointAvgF,DewpointLowF,HumidityHigh,HumidityAvg,HumidityLow,PressureMaxIn,PressureMinIn,WindSpeedMaxMPH,WindSpeedAvgMPH,GustSpeedMaxMPH,PrecipitationSumIn
2012-12-1,73,61,50,62,56,49,97,86,65,30.34,30.25,6,0,8,0.00
2012-12-2,77,61,50,64,56,48,97,84,58,30.35,30.24,5,0,6,0.00
2012-12-3,72,61,53,65,58,51,98,91,79,30.33,30.24,2,0,4,0.01
2012-12-4,75,61,51,65,56,49,98,86,60,30.34,30.23,4,0,5,0.00
2012-12-5,76,60,45,61,53,44,97,80,50,30.24,30.08,4,0,5,0.01
2012-12-6,69,62,55,63,59,54,96,89,80,30.12,30.04,7,0,15,0.01
2012-12-7,67,59,53,61,56,51,97,90,77,30.07,29.96,4,0,7,0.01
2012-12-8,71,60,54,64,57,52,98,92,77,30.09,29.99,3,0,5,0.02
2012-12-9,73,65,59,68,63,58,98,94,86,30.12,30.00,2,0,3,0.01
2012-12-10,80,68,60,67,63,59,98,85,56,30.00,29.79,9,0,11,0.01
2012-12-11,75,66,59,70,64,57,97,92,80,30.07,29.81,5,0,8,0.00
2012-12-12,59,55,53,57,53,49,97,93,85,30.15,30.04,5,0,7,0.30
2012-12-13,54,48,45,53,46,44,97,95,90,30.31,30.13,6,0,9,0.04
2012-12-14,64,51,46,54,47,43,97,89,62,30.35,30.17,3,0,7,0.02
2012-12-15,70,58,47,62,54,45,96,87,73,30.20,30.08,4,0,5,0.00
2012-12-16,78,64,56,66,60,56,98,88,60,30.10,29.92,6,0,9,0.00
2012-12-17,74,64,58,69,62,57,98,92,80,29.93,29.77,11,1,15,0.16
2012-12-18,70,59,41,61,52,38,97,79,39,30.05,29.81,10,1,15,0.01
2012-12-19,73,51,34,47,40,33,96,72,30,30.14,30.04,6,0,6,0.00
2012-12-20,77,56,40,68,52,38,98,87,64,30.09,29.76,12,1,23,0.15
2012-12-21,56,46,40,47,31,24,78,57,34,30.15,29.91,20,3,20,0.15
2012-12-22,58,41,30,33,27,23,88,59,31,30.27,30.15,9,1,12,0.00
2012-12-23,62,43,27,42,32,24,93,70,32,30.27,30.14,4,0,6,0.00
2012-12-24,68,53,38,57,47,36,95,82,61,30.15,29.92,6,0,12,0.14
2012-12-25,73,59,51,66,57,50,97,92,74,30.01,29.85,5,0,6,0.15
2012-12-26,68,58,38,65,52,33,97,81,59,29.98,29.64,18,4,21,0.32
2012-12-27,58,43,34,44,36,31,92,78,56,30.10,29.97,10,1,13,0.00
2012-12-28,60,45,30,51,40,29,96,83,55,30.15,29.88,5,0,6,0.00
2012-12-29,67,56,42,67,51,32,98,84,68,30.19,29.73,11,2,15,0.61
2012-12-30,53,42,31,36,32,28,90,69,44,30.42,30.19,5,0,12,0.00
2012-12-31,66,46,30,52,40,28,96,80,59,30.42,30.23,5,0,7,0.00